sensor_id;sensor_type;location;lat;lon;timestamp;P1;durP1;ratioP1;P2;durP2;ratioP2
20846;SDS011;10584;50.854;12.902;2023-04-25T00:01:51;10.57;;;5.60;;
20846;SDS011;10584;50.854;12.902;2023-04-25T00:07:33;14.57;;;5.97;;
20846;SDS011;10584;50.854;12.902;2023-04-25T00:13:03;11.43;;;5.30;;
20846;SDS011;10584;50.854;12.902;2023-04-25T00:18:39;9.67;;;5.37;;
20846;SDS011;10584;50.854;12.902;2023-04-25T00:24:28;13.00;;;5.67;;
20846;SDS011;10584;50.854;12.902;2023-04-25T00:29:53;11.63;;;5.90;;
20846;SDS011;10584;50.854;12.902;2023-04-25T00:35:14;9.77;;;6.10;;
20846;SDS011;10584;50.854;12.902;2023-04-25T00:40:36;11.23;;;5.87;;
20846;SDS011;10584;50.854;12.902;2023-04-25T00:45:59;10.57;;;6.00;;
20846;SDS011;10584;50.854;12.902;2023-04-25T00:51:57;11.90;;;6.13;;
20846;SDS011;10584;50.854;12.902;2023-04-25T00:57:39;11.77;;;5.93;;
20846;SDS011;10584;50.854;12.902;2023-04-25T01:03:28;10.97;;;6.00;;
20846;SDS011;10584;50.854;12.902;2023-04-25T01:08:54;11.37;;;6.43;;
20846;SDS011;10584;50.854;12.902;2023-04-25T01:14:41;12.50;;;6.43;;
20846;SDS011;10584;50.854;12.902;2023-04-25T01:20:24;13.50;;;6.03;;
20846;SDS011;10584;50.854;12.902;2023-04-25T01:26:14;11.33;;;5.80;;
20846;SDS011;10584;50.854;12.902;2023-04-25T01:31:43;15.23;;;6.83;;
20846;SDS011;10584;50.854;12.902;2023-04-25T01:37:08;14.43;;;6.63;;
20846;SDS011;10584;50.854;12.902;2023-04-25T01:42:45;12.23;;;6.30;;
20846;SDS011;10584;50.854;12.902;2023-04-25T01:48:31;16.03;;;6.80;;
20846;SDS011;10584;50.854;12.902;2023-04-25T01:54:16;11.97;;;6.30;;
20846;SDS011;10584;50.854;12.902;2023-04-25T01:59:44;14.90;;;7.13;;
20846;SDS011;10584;50.854;12.902;2023-04-25T02:05:34;16.33;;;7.00;;
20846;SDS011;10584;50.854;12.902;2023-04-25T02:11:06;11.30;;;6.80;;
20846;SDS011;10584;50.854;12.902;2023-04-25T02:17:06;14.93;;;7.07;;
20846;SDS011;10584;50.854;12.902;2023-04-25T02:22:51;14.87;;;6.87;;
20846;SDS011;10584;50.854;12.902;2023-04-25T02:28:29;15.80;;;7.47;;
20846;SDS011;10584;50.854;12.902;2023-04-25T02:34:14;12.40;;;7.17;;
20846;SDS011;10584;50.854;12.902;2023-04-25T02:39:42;14.07;;;7.00;;
20846;SDS011;10584;50.854;12.902;2023-04-25T02:45:04;14.90;;;6.97;;
20846;SDS011;10584;50.854;12.902;2023-04-25T02:50:27;13.23;;;7.27;;
20846;SDS011;10584;50.854;12.902;2023-04-25T02:55:53;16.20;;;7.47;;
20846;SDS011;10584;50.854;12.902;2023-04-25T03:01:48;16.80;;;7.53;;
20846;SDS011;10584;50.854;12.902;2023-04-25T03:07:31;13.47;;;7.30;;
20846;SDS011;10584;50.854;12.902;2023-04-25T03:13:04;13.73;;;6.60;;
20846;SDS011;10584;50.854;12.902;2023-04-25T03:18:39;14.20;;;7.07;;
20846;SDS011;10584;50.854;12.902;2023-04-25T03:24:05;12.77;;;6.27;;
20846;SDS011;10584;50.854;12.902;2023-04-25T03:29:34;11.13;;;6.63;;
20846;SDS011;10584;50.854;12.902;2023-04-25T03:34:57;14.17;;;6.10;;
20846;SDS011;10584;50.854;12.902;2023-04-25T03:40:20;13.70;;;6.40;;
20846;SDS011;10584;50.854;12.902;2023-04-25T03:46:05;15.67;;;6.90;;
20846;SDS011;10584;50.854;12.902;2023-04-25T03:51:47;15.37;;;7.23;;
20846;SDS011;10584;50.854;12.902;2023-04-25T03:57:38;15.63;;;7.23;;
20846;SDS011;10584;50.854;12.902;2023-04-25T04:03:35;15.93;;;7.27;;
20846;SDS011;10584;50.854;12.902;2023-04-25T04:09:22;14.20;;;7.50;;
20846;SDS011;10584;50.854;12.902;2023-04-25T04:15:14;16.00;;;7.60;;
20846;SDS011;10584;50.854;12.902;2023-04-25T04:20:37;14.80;;;7.37;;
20846;SDS011;10584;50.854;12.902;2023-04-25T04:26:06;16.17;;;8.03;;
20846;SDS011;10584;50.854;12.902;2023-04-25T04:32:03;16.20;;;7.70;;
20846;SDS011;10584;50.854;12.902;2023-04-25T04:37:54;16.13;;;7.47;;
20846;SDS011;10584;50.854;12.902;2023-04-25T04:43:32;16.03;;;7.87;;
20846;SDS011;10584;50.854;12.902;2023-04-25T04:49:16;17.63;;;8.10;;
20846;SDS011;10584;50.854;12.902;2023-04-25T04:54:58;16.03;;;7.57;;
20846;SDS011;10584;50.854;12.902;2023-04-25T05:00:27;12.90;;;7.20;;
20846;SDS011;10584;50.854;12.902;2023-04-25T05:06:31;14.53;;;7.30;;
20846;SDS011;10584;50.854;12.902;2023-04-25T05:12:56;12.93;;;7.37;;
20846;SDS011;10584;50.854;12.902;2023-04-25T05:18:51;14.83;;;6.80;;
20846;SDS011;10584;50.854;12.902;2023-04-25T05:25:05;15.53;;;8.37;;
20846;SDS011;10584;50.854;12.902;2023-04-25T05:30:46;13.10;;;7.20;;
20846;SDS011;10584;50.854;12.902;2023-04-25T05:36:30;13.53;;;7.20;;
20846;SDS011;10584;50.854;12.902;2023-04-25T05:41:59;12.07;;;7.07;;
20846;SDS011;10584;50.854;12.902;2023-04-25T05:48:00;13.77;;;7.57;;
20846;SDS011;10584;50.854;12.902;2023-04-25T05:53:47;16.63;;;7.60;;
20846;SDS011;10584;50.854;12.902;2023-04-25T05:59:19;14.00;;;6.97;;
20846;SDS011;10584;50.854;12.902;2023-04-25T06:04:48;12.47;;;7.50;;
20846;SDS011;10584;50.854;12.902;2023-04-25T06:10:15;18.73;;;7.30;;
20846;SDS011;10584;50.854;12.902;2023-04-25T06:15:37;12.47;;;6.87;;
20846;SDS011;10584;50.854;12.902;2023-04-25T06:21:05;12.30;;;6.97;;
20846;SDS011;10584;50.854;12.902;2023-04-25T06:26:46;14.67;;;6.70;;
20846;SDS011;10584;50.854;12.902;2023-04-25T06:32:46;10.90;;;6.27;;
20846;SDS011;10584;50.854;12.902;2023-04-25T06:38:30;13.23;;;6.87;;
20846;SDS011;10584;50.854;12.902;2023-04-25T06:44:06;13.70;;;6.47;;
20846;SDS011;10584;50.854;12.902;2023-04-25T06:49:33;10.20;;;6.50;;
20846;SDS011;10584;50.854;12.902;2023-04-25T06:54:59;15.27;;;7.10;;
20846;SDS011;10584;50.854;12.902;2023-04-25T07:00:33;13.30;;;6.10;;
20846;SDS011;10584;50.854;12.902;2023-04-25T07:05:56;10.87;;;6.10;;
20846;SDS011;10584;50.854;12.902;2023-04-25T07:11:39;15.63;;;5.90;;
20846;SDS011;10584;50.854;12.902;2023-04-25T07:17:04;10.90;;;4.93;;
20846;SDS011;10584;50.854;12.902;2023-04-25T07:22:45;12.70;;;5.00;;
20846;SDS011;10584;50.854;12.902;2023-04-25T07:28:29;11.73;;;4.60;;
20846;SDS011;10584;50.854;12.902;2023-04-25T07:34:15;13.00;;;4.37;;
20846;SDS011;10584;50.854;12.902;2023-04-25T07:39:42;9.73;;;5.03;;
20846;SDS011;10584;50.854;12.902;2023-04-25T07:45:03;9.50;;;4.57;;
20846;SDS011;10584;50.854;12.902;2023-04-25T07:50:25;13.70;;;5.23;;
20846;SDS011;10584;50.854;12.902;2023-04-25T07:55:47;17.40;;;6.13;;
20846;SDS011;10584;50.854;12.902;2023-04-25T08:01:50;12.03;;;6.03;;
20846;SDS011;10584;50.854;12.902;2023-04-25T08:07:35;12.60;;;6.40;;
20846;SDS011;10584;50.854;12.902;2023-04-25T08:13:06;16.17;;;6.63;;
20846;SDS011;10584;50.854;12.902;2023-04-25T08:18:42;14.60;;;6.17;;
20846;SDS011;10584;50.854;12.902;2023-04-25T08:24:15;12.20;;;6.13;;
20846;SDS011;10584;50.854;12.902;2023-04-25T08:29:43;12.73;;;5.93;;
20846;SDS011;10584;50.854;12.902;2023-04-25T08:35:06;13.53;;;6.37;;
20846;SDS011;10584;50.854;12.902;2023-04-25T08:40:28;11.17;;;6.70;;
20846;SDS011;10584;50.854;12.902;2023-04-25T08:46:04;16.53;;;7.20;;
20846;SDS011;10584;50.854;12.902;2023-04-25T08:52:10;9.67;;;4.97;;
20846;SDS011;10584;50.854;12.902;2023-04-25T08:58:02;7.93;;;4.60;;
20846;SDS011;10584;50.854;12.902;2023-04-25T09:03:29;6.43;;;3.93;;
20846;SDS011;10584;50.854;12.902;2023-04-25T09:09:20;11.10;;;4.87;;
20846;SDS011;10584;50.854;12.902;2023-04-25T09:14:41;7.53;;;4.33;;
20846;SDS011;10584;50.854;12.902;2023-04-25T09:20:27;11.13;;;4.97;;
20846;SDS011;10584;50.854;12.902;2023-04-25T09:25:54;11.40;;;5.90;;
20846;SDS011;10584;50.854;12.902;2023-04-25T09:31:47;12.70;;;5.37;;
20846;SDS011;10584;50.854;12.902;2023-04-25T09:37:55;9.77;;;5.30;;
20846;SDS011;10584;50.854;12.902;2023-04-25T09:43:44;17.37;;;5.77;;
20846;SDS011;10584;50.854;12.902;2023-04-25T09:49:29;13.80;;;6.27;;
20846;SDS011;10584;50.854;12.902;2023-04-25T09:55:01;14.43;;;6.53;;
20846;SDS011;10584;50.854;12.902;2023-04-25T10:00:26;12.67;;;6.00;;
20846;SDS011;10584;50.854;12.902;2023-04-25T10:05:54;16.13;;;6.50;;
20846;SDS011;10584;50.854;12.902;2023-04-25T10:11:49;11.43;;;6.10;;
20846;SDS011;10584;50.854;12.902;2023-04-25T10:17:19;11.93;;;6.60;;
20846;SDS011;10584;50.854;12.902;2023-04-25T10:23:03;11.30;;;7.03;;
20846;SDS011;10584;50.854;12.902;2023-04-25T10:29:01;22.33;;;11.60;;
20846;SDS011;10584;50.854;12.902;2023-04-25T10:34:37;22.63;;;10.13;;
20846;SDS011;10584;50.854;12.902;2023-04-25T10:40:07;20.83;;;10.27;;
20846;SDS011;10584;50.854;12.902;2023-04-25T10:45:30;14.53;;;8.07;;
20846;SDS011;10584;50.854;12.902;2023-04-25T11:03:32;8.37;;;4.40;;
20846;SDS011;10584;50.854;12.902;2023-04-25T11:09:23;11.70;;;5.80;;
20846;SDS011;10584;50.854;12.902;2023-04-25T11:14:45;17.30;;;7.90;;
20846;SDS011;10584;50.854;12.902;2023-04-25T11:20:07;16.30;;;6.70;;
20846;SDS011;10584;50.854;12.902;2023-04-25T11:25:31;21.17;;;8.53;;
20846;SDS011;10584;50.854;12.902;2023-04-25T11:30:56;17.73;;;8.13;;
20846;SDS011;10584;50.854;12.902;2023-04-25T11:36:48;17.67;;;6.77;;
20846;SDS011;10584;50.854;12.902;2023-04-25T11:42:11;9.73;;;5.10;;
20846;SDS011;10584;50.854;12.902;2023-04-25T11:47:49;15.93;;;5.73;;
20846;SDS011;10584;50.854;12.902;2023-04-25T11:53:31;13.20;;;5.80;;
20846;SDS011;10584;50.854;12.902;2023-04-25T11:59:08;15.03;;;5.73;;
20846;SDS011;10584;50.854;12.902;2023-04-25T12:04:37;12.23;;;5.63;;
20846;SDS011;10584;50.854;12.902;2023-04-25T12:10:30;17.63;;;5.33;;
20846;SDS011;10584;50.854;12.902;2023-04-25T12:15:54;9.83;;;5.20;;
20846;SDS011;10584;50.854;12.902;2023-04-25T12:21:55;13.57;;;4.90;;
20846;SDS011;10584;50.854;12.902;2023-04-25T12:27:48;16.53;;;5.37;;
20846;SDS011;10584;50.854;12.902;2023-04-25T12:33:38;12.63;;;5.17;;
20846;SDS011;10584;50.854;12.902;2023-04-25T12:39:08;13.17;;;5.67;;
20846;SDS011;10584;50.854;12.902;2023-04-25T12:44:58;30.90;;;6.03;;
20846;SDS011;10584;50.854;12.902;2023-04-25T12:50:19;18.47;;;6.40;;
20846;SDS011;10584;50.854;12.902;2023-04-25T12:55:41;15.87;;;6.03;;
20846;SDS011;10584;50.854;12.902;2023-04-25T13:01:03;16.90;;;6.37;;
20846;SDS011;10584;50.854;12.902;2023-04-25T13:06:31;13.00;;;5.27;;
20846;SDS011;10584;50.854;12.902;2023-04-25T13:12:12;11.97;;;5.27;;
20846;SDS011;10584;50.854;12.902;2023-04-25T13:17:35;9.00;;;3.70;;
20846;SDS011;10584;50.854;12.902;2023-04-25T13:23:19;7.47;;;4.40;;
20846;SDS011;10584;50.854;12.902;2023-04-25T13:29:01;13.30;;;6.30;;
20846;SDS011;10584;50.854;12.902;2023-04-25T13:34:29;13.33;;;6.00;;
20846;SDS011;10584;50.854;12.902;2023-04-25T13:39:51;14.67;;;6.20;;
20846;SDS011;10584;50.854;12.902;2023-04-25T13:45:13;11.77;;;5.73;;
20846;SDS011;10584;50.854;12.902;2023-04-25T13:50:35;13.90;;;5.80;;
20846;SDS011;10584;50.854;12.902;2023-04-25T13:55:58;16.50;;;6.13;;
20846;SDS011;10584;50.854;12.902;2023-04-25T14:01:50;9.93;;;5.27;;
20846;SDS011;10584;50.854;12.902;2023-04-25T14:07:37;14.27;;;5.53;;
20846;SDS011;10584;50.854;12.902;2023-04-25T14:14:00;17.00;;;5.23;;
20846;SDS011;10584;50.854;12.902;2023-04-25T14:20:20;11.93;;;5.43;;
20846;SDS011;10584;50.854;12.902;2023-04-25T14:26:19;12.90;;;5.23;;
20846;SDS011;10584;50.854;12.902;2023-04-25T14:31:47;15.10;;;5.30;;
20846;SDS011;10584;50.854;12.902;2023-04-25T14:37:42;13.13;;;6.23;;
20846;SDS011;10584;50.854;12.902;2023-04-25T14:43:27;14.77;;;5.63;;
20846;SDS011;10584;50.854;12.902;2023-04-25T14:49:09;17.37;;;6.60;;
20846;SDS011;10584;50.854;12.902;2023-04-25T14:54:36;15.20;;;6.23;;
20846;SDS011;10584;50.854;12.902;2023-04-25T14:59:58;14.43;;;6.33;;
20846;SDS011;10584;50.854;12.902;2023-04-25T15:05:21;13.77;;;5.10;;
20846;SDS011;10584;50.854;12.902;2023-04-25T15:11:21;17.40;;;5.17;;
20846;SDS011;10584;50.854;12.902;2023-04-25T15:17:00;14.23;;;5.63;;
20846;SDS011;10584;50.854;12.902;2023-04-25T15:22:46;18.80;;;5.70;;
20846;SDS011;10584;50.854;12.902;2023-04-25T15:28:28;15.33;;;4.87;;
20846;SDS011;10584;50.854;12.902;2023-04-25T15:34:12;15.07;;;4.67;;
20846;SDS011;10584;50.854;12.902;2023-04-25T15:39:39;23.13;;;8.10;;
20846;SDS011;10584;50.854;12.902;2023-04-25T15:45:01;16.87;;;4.37;;
20846;SDS011;10584;50.854;12.902;2023-04-25T15:50:24;16.03;;;5.20;;
20846;SDS011;10584;50.854;12.902;2023-04-25T15:55:54;12.03;;;4.10;;
20846;SDS011;10584;50.854;12.902;2023-04-25T16:01:47;19.87;;;4.23;;
20846;SDS011;10584;50.854;12.902;2023-04-25T16:07:22;10.57;;;3.90;;
20846;SDS011;10584;50.854;12.902;2023-04-25T16:13:00;15.37;;;4.37;;
20846;SDS011;10584;50.854;12.902;2023-04-25T16:18:25;11.83;;;4.00;;
20846;SDS011;10584;50.854;12.902;2023-04-25T16:24:04;12.80;;;4.03;;
20846;SDS011;10584;50.854;12.902;2023-04-25T16:29:33;11.90;;;3.20;;
20846;SDS011;10584;50.854;12.902;2023-04-25T16:34:55;12.23;;;3.70;;
20846;SDS011;10584;50.854;12.902;2023-04-25T16:40:18;12.13;;;3.30;;
20846;SDS011;10584;50.854;12.902;2023-04-25T16:45:40;11.57;;;3.60;;
20846;SDS011;10584;50.854;12.902;2023-04-25T16:51:06;12.23;;;4.17;;
20846;SDS011;10584;50.854;12.902;2023-04-25T16:56:54;11.90;;;3.70;;
20846;SDS011;10584;50.854;12.902;2023-04-25T17:02:27;12.93;;;3.23;;
20846;SDS011;10584;50.854;12.902;2023-04-25T17:08:13;9.60;;;3.13;;
20846;SDS011;10584;50.854;12.902;2023-04-25T17:13:38;8.33;;;3.00;;
20846;SDS011;10584;50.854;12.902;2023-04-25T17:19:08;9.20;;;3.60;;
20846;SDS011;10584;50.854;12.902;2023-04-25T17:24:37;9.60;;;3.37;;
20846;SDS011;10584;50.854;12.902;2023-04-25T17:30:00;8.10;;;2.97;;
20846;SDS011;10584;50.854;12.902;2023-04-25T17:35:23;10.83;;;2.80;;
20846;SDS011;10584;50.854;12.902;2023-04-25T17:40:45;18.50;;;3.83;;
20846;SDS011;10584;50.854;12.902;2023-04-25T17:46:18;10.63;;;3.00;;
20846;SDS011;10584;50.854;12.902;2023-04-25T17:51:56;12.13;;;3.00;;
20846;SDS011;10584;50.854;12.902;2023-04-25T17:57:41;8.63;;;2.70;;
20846;SDS011;10584;50.854;12.902;2023-04-25T18:03:23;9.73;;;3.70;;
20846;SDS011;10584;50.854;12.902;2023-04-25T18:09:22;16.87;;;4.03;;
20846;SDS011;10584;50.854;12.902;2023-04-25T18:14:44;19.60;;;5.00;;
20846;SDS011;10584;50.854;12.902;2023-04-25T18:20:10;13.13;;;5.20;;
20846;SDS011;10584;50.854;12.902;2023-04-25T18:25:34;23.77;;;7.90;;
20846;SDS011;10584;50.854;12.902;2023-04-25T18:31:02;20.83;;;7.17;;
20846;SDS011;10584;50.854;12.902;2023-04-25T18:36:56;13.30;;;4.40;;
20846;SDS011;10584;50.854;12.902;2023-04-25T18:42:36;9.67;;;3.80;;
20846;SDS011;10584;50.854;12.902;2023-04-25T18:48:21;10.90;;;3.63;;
20846;SDS011;10584;50.854;12.902;2023-04-25T18:54:03;14.70;;;3.40;;
20846;SDS011;10584;50.854;12.902;2023-04-25T18:59:33;9.23;;;3.60;;
20846;SDS011;10584;50.854;12.902;2023-04-25T19:04:57;10.67;;;3.53;;
20846;SDS011;10584;50.854;12.902;2023-04-25T19:10:42;11.57;;;3.57;;
20846;SDS011;10584;50.854;12.902;2023-04-25T19:16:45;10.93;;;3.80;;
20846;SDS011;10584;50.854;12.902;2023-04-25T19:22:49;6.57;;;3.17;;
20846;SDS011;10584;50.854;12.902;2023-04-25T19:28:30;12.67;;;4.10;;
20846;SDS011;10584;50.854;12.902;2023-04-25T19:34:08;8.00;;;3.53;;
20846;SDS011;10584;50.854;12.902;2023-04-25T19:39:38;15.27;;;3.23;;
20846;SDS011;10584;50.854;12.902;2023-04-25T19:45:00;10.50;;;3.63;;
20846;SDS011;10584;50.854;12.902;2023-04-25T19:50:21;8.90;;;3.27;;
20846;SDS011;10584;50.854;12.902;2023-04-25T19:55:43;12.00;;;3.67;;
20846;SDS011;10584;50.854;12.902;2023-04-25T20:01:05;13.33;;;3.43;;
20846;SDS011;10584;50.854;12.902;2023-04-25T20:06:34;10.93;;;3.77;;
20846;SDS011;10584;50.854;12.902;2023-04-25T20:12:16;12.03;;;3.57;;
20846;SDS011;10584;50.854;12.902;2023-04-25T20:17:53;8.43;;;3.37;;
20846;SDS011;10584;50.854;12.902;2023-04-25T20:23:22;10.23;;;3.47;;
20846;SDS011;10584;50.854;12.902;2023-04-25T20:29:01;8.70;;;3.10;;
20846;SDS011;10584;50.854;12.902;2023-04-25T20:34:32;8.63;;;3.03;;
20846;SDS011;10584;50.854;12.902;2023-04-25T20:39:53;11.30;;;3.13;;
20846;SDS011;10584;50.854;12.902;2023-04-25T20:45:14;9.70;;;2.90;;
20846;SDS011;10584;50.854;12.902;2023-04-25T20:50:37;7.07;;;3.00;;
20846;SDS011;10584;50.854;12.902;2023-04-25T20:56:05;9.60;;;3.27;;
20846;SDS011;10584;50.854;12.902;2023-04-25T21:01:57;11.23;;;3.10;;
20846;SDS011;10584;50.854;12.902;2023-04-25T21:07:34;11.37;;;3.37;;
20846;SDS011;10584;50.854;12.902;2023-04-25T21:13:04;10.40;;;3.40;;
20846;SDS011;10584;50.854;12.902;2023-04-25T21:18:30;10.77;;;3.30;;
20846;SDS011;10584;50.854;12.902;2023-04-25T21:24:07;13.97;;;3.50;;
20846;SDS011;10584;50.854;12.902;2023-04-25T21:29:38;8.97;;;3.43;;
20846;SDS011;10584;50.854;12.902;2023-04-25T21:35:00;11.80;;;3.77;;
20846;SDS011;10584;50.854;12.902;2023-04-25T21:40:22;11.60;;;3.73;;
20846;SDS011;10584;50.854;12.902;2023-04-25T21:45:43;7.57;;;3.40;;
20846;SDS011;10584;50.854;12.902;2023-04-25T21:51:40;9.80;;;3.40;;
20846;SDS011;10584;50.854;12.902;2023-04-25T21:57:18;8.30;;;3.17;;
20846;SDS011;10584;50.854;12.902;2023-04-25T22:03:01;7.17;;;3.30;;
20846;SDS011;10584;50.854;12.902;2023-04-25T22:08:51;7.33;;;3.40;;
20846;SDS011;10584;50.854;12.902;2023-04-25T22:14:21;10.80;;;3.43;;
20846;SDS011;10584;50.854;12.902;2023-04-25T22:20:10;8.83;;;3.13;;
20846;SDS011;10584;50.854;12.902;2023-04-25T22:26:06;9.87;;;3.37;;
20846;SDS011;10584;50.854;12.902;2023-04-25T22:32:07;11.00;;;3.13;;
20846;SDS011;10584;50.854;12.902;2023-04-25T22:37:36;5.50;;;2.97;;
20846;SDS011;10584;50.854;12.902;2023-04-25T22:43:16;6.53;;;2.97;;
20846;SDS011;10584;50.854;12.902;2023-04-25T22:48:52;8.87;;;3.30;;
20846;SDS011;10584;50.854;12.902;2023-04-25T22:54:35;8.73;;;3.30;;
20846;SDS011;10584;50.854;12.902;2023-04-25T22:59:57;8.33;;;3.20;;
20846;SDS011;10584;50.854;12.902;2023-04-25T23:05:19;11.73;;;3.40;;
20846;SDS011;10584;50.854;12.902;2023-04-25T23:11:13;7.40;;;3.53;;
20846;SDS011;10584;50.854;12.902;2023-04-25T23:17:01;9.03;;;4.10;;
20846;SDS011;10584;50.854;12.902;2023-04-25T23:22:25;7.50;;;3.20;;
20846;SDS011;10584;50.854;12.902;2023-04-25T23:28:15;9.40;;;3.27;;
20846;SDS011;10584;50.854;12.902;2023-04-25T23:33:51;5.30;;;3.13;;
20846;SDS011;10584;50.854;12.902;2023-04-25T23:39:29;5.47;;;3.43;;
20846;SDS011;10584;50.854;12.902;2023-04-25T23:44:52;5.87;;;3.30;;
20846;SDS011;10584;50.854;12.902;2023-04-25T23:50:14;7.13;;;3.60;;
20846;SDS011;10584;50.854;12.902;2023-04-25T23:55:36;7.90;;;3.40;;
